Time;durP1;ratioP1;P1;durP2;ratioP2;P2;SDS_P1;SDS_P2;PMS_P1;PMS_P2;Temp;Humidity;BMP_temperature;BMP_pressure;BME280_temperature;BME280_humidity;BME280_pressure;Samples;Min_cycle;Max_cycle;Signal;HPM_P1;HPM_P2
2022/08/14 00:00:24;;;;;;;4.03;3.73;;;20.60;99.90;;;;;;5076664;28;20587;-74
2022/08/14 00:02:50;;;;;;;3.60;2.70;;;20.50;99.90;;;;;;5076897;28;20215;-70
2022/08/14 00:05:19;;;;;;;4.13;2.80;;;20.50;99.90;;;;;;5083968;28;20179;-70
2022/08/14 00:07:46;;;;;;;2.73;2.30;;;20.40;99.90;;;;;;5076987;28;20602;-72
2022/08/14 00:10:15;;;;;;;3.93;2.93;;;20.40;99.90;;;;;;5076533;28;20183;-82
2022/08/14 00:12:45;;;;;;;3.10;2.90;;;20.30;99.90;;;;;;5085496;28;20266;-72
2022/08/14 00:15:33;;;;;;;3.50;3.23;;;20.30;99.90;;;;;;5083204;28;20210;-73
2022/08/14 00:18:00;;;;;;;7.80;3.97;;;20.10;99.90;;;;;;5077139;28;20178;-74
2022/08/14 00:20:30;;;;;;;4.33;3.20;;;19.80;99.90;;;;;;5076936;28;20182;-71
2022/08/14 00:22:57;;;;;;;2.70;2.60;;;19.60;99.90;;;;;;5083505;28;20628;-74
2022/08/14 00:25:22;;;;;;;2.63;2.53;;;19.50;99.90;;;;;;5089770;28;20611;-71
2022/08/14 00:27:48;;;;;;;5.63;2.67;;;19.20;99.90;;;;;;5076698;28;20187;-74
2022/08/14 00:30:14;;;;;;;21.30;3.20;;;-35.80;89.70;;;;;;5076868;28;20603;-74
2022/08/14 00:32:41;;;;;;;4.50;3.13;;;-31.50;92.10;;;;;;5076795;28;20190;-70
2022/08/14 00:35:08;;;;;;;3.00;2.67;;;-33.80;90.40;;;;;;5083079;28;21175;-76
2022/08/14 00:37:40;;;;;;;6.90;2.87;;;-33.00;90.50;;;;;;5082329;28;20182;-71
2022/08/14 00:40:08;;;;;;;2.37;2.27;;;-29.40;92.20;;;;;;5083705;28;20178;-72
2022/08/14 00:42:34;;;;;;;3.67;3.37;;;-40.00;87.40;;;;;;5076972;28;20179;-71
2022/08/14 00:45:00;;;;;;;2.77;2.53;;;-39.70;87.40;;;;;;5076914;28;20579;-72
2022/08/14 00:47:25;;;;;;;3.27;2.70;;;-34.80;90.30;;;;;;5076504;28;20179;-73
2022/08/14 00:49:55;;;;;;;3.07;2.87;;;-34.50;90.10;;;;;;5076941;28;20203;-71
2022/08/14 00:52:22;;;;;;;4.23;3.67;;;-36.30;90.20;;;;;;5077406;28;20187;-71
2022/08/14 00:54:52;;;;;;;4.63;2.30;;;-33.60;90.90;;;;;;5075784;28;20215;-72
2022/08/14 00:57:21;;;;;;;2.60;2.40;;;-33.40;90.70;;;;;;5087264;28;20244;-73
2022/08/14 00:59:47;;;;;;;3.53;3.23;;;-26.40;92.80;;;;;;5089528;28;20617;-78
2022/08/14 01:02:18;;;;;;;3.30;3.00;;;-30.90;91.60;;;;;;5083559;28;20977;-76
2022/08/14 01:04:46;;;;;;;3.60;3.30;;;-27.00;92.60;;;;;;5094676;28;20171;-72
2022/08/14 01:07:16;;;;;;;3.10;2.97;;;-22.00;94.00;;;;;;5086907;28;20649;-72
2022/08/14 01:09:43;;;;;;;8.37;3.63;;;-27.30;92.40;;;;;;5087781;28;20185;-73
2022/08/14 01:12:10;;;;;;;4.33;2.97;;;-29.70;92.00;;;;;;5085786;28;20183;-72
2022/08/14 01:14:36;;;;;;;4.53;2.77;;;-20.00;94.60;;;;;;5083242;28;20201;-72
2022/08/14 01:17:02;;;;;;;2.70;2.60;;;-21.10;94.60;;;;;;5083604;28;20253;-72
2022/08/14 01:22:14;;;;;;;3.33;2.93;;;-26.80;93.60;;;;;;5083945;28;20186;-72
2022/08/14 01:24:40;;;;;;;4.00;3.67;;;-24.60;94.50;;;;;;5082648;28;20586;-78
2022/08/14 01:27:06;;;;;;;3.10;2.90;;;-24.50;95.10;;;;;;5090809;28;20186;-72
2022/08/14 01:29:36;;;;;;;3.10;2.53;;;-23.60;95.30;;;;;;5082946;28;20187;-72
2022/08/14 01:32:04;;;;;;;5.23;2.77;;;-20.80;96.30;;;;;;5090714;28;20612;-80
2022/08/14 01:34:31;;;;;;;3.77;3.57;;;-20.90;96.20;;;;;;5086981;28;20195;-73
2022/08/14 01:36:58;;;;;;;3.43;2.40;;;-24.40;95.40;;;;;;5083219;28;20521;-75
2022/08/14 01:39:24;;;;;;;3.67;3.00;;;-19.90;96.70;;;;;;5083196;28;20250;-79
2022/08/14 01:41:59;;;;;;;2.80;2.60;;;-20.60;97.00;;;;;;5081569;28;20183;-74
2022/08/14 01:44:29;;;;;;;3.07;2.30;;;-21.90;96.40;;;;;;5082453;28;20758;-81
2022/08/14 01:46:57;;;;;;;4.53;2.63;;;-23.80;95.80;;;;;;5083316;28;20183;-78
2022/08/14 01:49:24;;;;;;;3.27;3.07;;;-23.90;96.30;;;;;;5083192;28;20205;-71
2022/08/14 01:51:55;;;;;;;2.80;2.70;;;-25.00;95.70;;;;;;5082949;28;20202;-75
2022/08/14 01:54:24;;;;;;;8.10;3.00;;;-22.90;96.40;;;;;;5082519;28;20213;-76
2022/08/14 01:56:55;;;;;;;3.50;3.20;;;-23.40;96.20;;;;;;5082058;28;20194;-72
2022/08/14 01:59:32;;;;;;;3.03;2.83;;;-22.60;96.70;;;;;;5082169;28;20186;-75
2022/08/14 02:02:04;;;;;;;3.10;2.90;;;-18.90;98.00;;;;;;5083053;28;20182;-73
2022/08/14 02:04:34;;;;;;;3.27;3.07;;;-23.00;96.90;;;;;;5082665;28;20258;-73
2022/08/14 02:07:01;;;;;;;4.30;3.13;;;-15.50;99.40;;;;;;5093299;28;20262;-78
2022/08/14 02:09:33;;;;;;;3.53;2.70;;;-14.80;99.80;;;;;;5078717;28;20190;-76
2022/08/14 02:12:00;;;;;;;3.33;2.77;;;-18.50;98.70;;;;;;5086901;28;20198;-71
2022/08/14 02:14:26;;;;;;;7.63;3.53;;;-15.60;99.60;;;;;;5078512;28;20284;-73
2022/08/14 02:16:53;;;;;;;3.23;3.03;;;-22.40;97.90;;;;;;5079155;28;20203;-71
2022/08/14 02:19:25;;;;;;;2.90;2.37;;;-19.70;98.80;;;;;;5079230;28;20225;-71
2022/08/14 02:21:54;;;;;;;4.53;3.00;;;-16.60;99.50;;;;;;5079176;28;20463;-74
2022/08/14 02:24:22;;;;;;;2.73;2.50;;;-15.20;99.90;;;;;;5083625;28;20181;-81
2022/08/14 02:26:50;;;;;;;3.40;3.10;;;-13.40;99.90;;;;;;5079183;28;20194;-75
2022/08/14 02:29:20;;;;;;;9.23;3.23;;;-15.20;99.90;;;;;;5080276;28;20583;-79
2022/08/14 02:31:51;;;;;;;3.63;3.33;;;-14.60;99.90;;;;;;5085419;28;20489;-83
2022/08/14 02:34:28;;;;;;;3.57;2.50;;;-10.30;99.90;;;;;;5080150;28;20626;-75
2022/08/14 02:37:14;;;;;;;4.13;2.80;;;-10.70;99.90;;;;;;5078704;28;20193;-72
2022/08/14 02:39:42;;;;;;;5.17;3.57;;;-13.20;99.90;;;;;;5081215;28;20202;-75
2022/08/14 02:42:14;;;;;;;4.47;3.30;;;-11.70;99.90;;;;;;5086336;28;20520;-78
2022/08/14 02:44:43;;;;;;;19.97;4.47;;;-17.10;99.90;;;;;;5093313;28;20181;-80
2022/08/14 02:47:09;;;;;;;5.27;2.80;;;-16.30;99.90;;;;;;5082889;28;20288;-76
2022/08/14 02:49:36;;;;;;;3.17;2.67;;;-15.30;99.90;;;;;;5082826;28;20176;-72
2022/08/14 02:52:05;;;;;;;3.10;2.90;;;-15.00;99.90;;;;;;5086195;28;20296;-75
2022/08/14 02:54:33;;;;;;;2.93;2.83;;;-13.10;99.90;;;;;;5086292;28;20244;-75
2022/08/14 02:57:00;;;;;;;3.50;2.83;;;-13.30;99.90;;;;;;5079214;28;20191;-80
2022/08/14 02:59:28;;;;;;;3.83;3.00;;;-9.90;99.90;;;;;;5090891;28;20190;-77
2022/08/14 03:01:56;;;;;;;3.67;3.30;;;-10.20;99.90;;;;;;5095773;28;20610;-72
2022/08/14 03:04:22;;;;;;;3.30;3.13;;;-10.60;99.90;;;;;;5089643;28;20197;-77
2022/08/14 03:06:50;;;;;;;3.23;3.03;;;-7.90;99.90;;;;;;5087774;28;20261;-74
2022/08/14 03:09:16;;;;;;;2.83;2.30;;;-6.70;99.90;;;;;;5099910;28;20178;-73
2022/08/14 03:11:43;;;;;;;2.63;2.43;;;-7.90;99.90;;;;;;5081454;28;20724;-80
2022/08/14 03:14:10;;;;;;;3.17;2.80;;;-9.00;99.90;;;;;;5079573;28;20286;-79
2022/08/14 03:16:39;;;;;;;3.00;2.80;;;-12.00;99.90;;;;;;5084285;28;20167;-73
2022/08/14 03:19:06;;;;;;;6.83;3.17;;;-10.30;99.90;;;;;;5084631;28;20175;-80
2022/08/14 03:21:33;;;;;;;5.83;3.20;;;-10.00;99.90;;;;;;5082622;28;20515;-72
2022/08/14 03:24:21;;;;;;;3.90;2.77;;;-10.40;99.90;;;;;;5078531;28;20184;-82
2022/08/14 03:26:46;;;;;;;3.23;3.03;;;-8.10;99.90;;;;;;5077822;28;20199;-77
2022/08/14 03:29:19;;;;;;;4.27;3.20;;;-7.60;99.90;;;;;;5081464;28;20174;-78
2022/08/14 03:31:48;;;;;;;4.20;3.90;;;-5.50;99.90;;;;;;5089433;28;20195;-73
2022/08/14 03:34:13;;;;;;;3.93;3.00;;;-5.00;99.90;;;;;;5077391;28;20199;-76
2022/08/14 03:36:42;;;;;;;2.73;2.63;;;-6.40;99.90;;;;;;5079502;28;20182;-77
2022/08/14 03:39:09;;;;;;;2.90;2.70;;;-7.10;99.90;;;;;;5087080;28;20182;-71
2022/08/14 03:41:35;;;;;;;3.93;2.87;;;-8.70;99.90;;;;;;5084440;28;20171;-74
2022/08/14 03:44:04;;;;;;;3.97;3.67;;;-9.80;99.90;;;;;;5077486;28;20183;-82
2022/08/14 03:46:32;;;;;;;3.13;2.93;;;-7.20;99.90;;;;;;5077969;28;20180;-79
2022/08/14 03:49:01;;;;;;;5.23;2.70;;;-9.60;99.90;;;;;;5077445;28;20526;-78
2022/08/14 03:51:27;;;;;;;3.10;2.87;;;-11.20;99.90;;;;;;5083352;28;20272;-76
2022/08/14 03:53:58;;;;;;;3.27;2.57;;;-15.30;99.90;;;;;;5080863;28;20202;-71
2022/08/14 03:56:26;;;;;;;3.23;2.70;;;-12.50;99.90;;;;;;5084231;28;20638;-80
2022/08/14 03:58:54;;;;;;;3.67;3.37;;;-15.40;99.90;;;;;;5077447;28;20191;-71
2022/08/14 04:01:22;;;;;;;3.17;2.87;;;-11.40;99.90;;;;;;5084612;28;20186;-73
2022/08/14 04:03:49;;;;;;;2.90;2.80;;;-9.30;99.90;;;;;;5082541;28;20191;-78
2022/08/14 04:06:16;;;;;;;3.00;2.80;;;-11.70;99.90;;;;;;5079712;28;20177;-78
2022/08/14 04:08:42;;;;;;;3.27;2.97;;;-13.00;99.90;;;;;;5077243;28;20206;-74
2022/08/14 04:11:09;;;;;;;2.90;2.80;;;-11.50;99.90;;;;;;5081946;28;20185;-75
2022/08/14 04:13:38;;;;;;;3.60;3.17;;;-10.50;99.90;;;;;;5083241;28;20182;-75
2022/08/14 04:16:07;;;;;;;4.33;3.50;;;-8.80;99.90;;;;;;5077898;28;20582;-74
2022/08/14 04:18:38;;;;;;;7.03;3.37;;;-13.30;99.90;;;;;;5076815;28;20179;-77
2022/08/14 04:21:04;;;;;;;5.13;3.90;;;-14.10;99.90;;;;;;5085083;28;20225;-74
2022/08/14 04:23:32;;;;;;;5.63;2.93;;;-13.90;99.90;;;;;;5080799;28;20182;-76
2022/08/14 04:25:59;;;;;;;2.80;2.70;;;-13.10;99.90;;;;;;5077084;28;20214;-75
2022/08/14 04:28:25;;;;;;;6.73;2.87;;;-13.90;99.90;;;;;;5076572;28;20175;-72
2022/08/14 04:30:51;;;;;;;3.33;3.13;;;-10.80;99.90;;;;;;5076372;28;20237;-79
2022/08/14 04:33:17;;;;;;;3.00;2.80;;;-9.40;99.90;;;;;;5081404;28;20183;-78
2022/08/14 04:35:42;;;;;;;3.20;2.90;;;-11.10;99.90;;;;;;5077187;28;20820;-74
2022/08/14 04:43:39;;;;;;;3.03;2.83;;;-13.10;99.90;;;;;;5077175;28;20268;-72
2022/08/14 04:46:12;;;;;;;2.87;2.77;;;-13.10;99.90;;;;;;5077034;28;20175;-72
2022/08/14 04:48:39;;;;;;;4.13;2.80;;;-13.40;99.90;;;;;;5080552;28;20179;-78
2022/08/14 04:51:07;;;;;;;3.50;3.30;;;-11.80;99.90;;;;;;5075853;28;20195;-77
2022/08/14 04:53:34;;;;;;;3.20;3.00;;;-9.40;99.90;;;;;;5079860;28;20262;-78
2022/08/14 04:56:00;;;;;;;3.00;2.80;;;-11.30;99.90;;;;;;5081825;28;20186;-72
2022/08/14 04:58:28;;;;;;;4.20;3.37;;;-12.30;99.90;;;;;;5076907;28;20198;-75
2022/08/14 05:00:56;;;;;;;5.93;3.50;;;-14.20;99.90;;;;;;5082170;28;20183;-77
2022/08/14 05:03:30;;;;;;;3.10;2.90;;;-13.50;99.90;;;;;;5075848;28;20171;-72
2022/08/14 05:05:59;;;;;;;6.83;3.47;;;-15.00;99.90;;;;;;5076236;28;20185;-75
2022/08/14 05:08:25;;;;;;;8.63;5.27;;;-11.90;99.90;;;;;;5080742;28;20179;-72
2022/08/14 05:10:54;;;;;;;14.17;4.50;;;-11.20;99.90;;;;;;5075959;28;20245;-83
2022/08/14 05:13:27;;;;;;;5.00;3.67;;;-12.30;99.90;;;;;;5084476;28;20168;-77
2022/08/14 05:15:57;;;;;;;3.83;3.30;;;-11.80;99.90;;;;;;5083317;28;20760;-81
2022/08/14 05:18:27;;;;;;;3.83;3.43;;;-13.80;99.90;;;;;;5079729;28;20175;-70
2022/08/14 05:20:55;;;;;;;11.00;3.17;;;-13.30;99.90;;;;;;5083546;28;20236;-70
2022/08/14 05:23:24;;;;;;;11.47;4.20;;;-12.60;99.90;;;;;;5080651;28;20731;-71
2022/08/14 05:26:02;;;;;;;3.60;3.30;;;-13.60;99.90;;;;;;5079694;28;20193;-71
2022/08/14 05:28:36;;;;;;;6.00;3.93;;;-13.00;99.90;;;;;;5081815;28;20214;-78
2022/08/14 05:31:07;;;;;;;3.73;3.20;;;-14.30;99.90;;;;;;5076200;28;20224;-75
2022/08/14 05:33:35;;;;;;;4.07;2.90;;;-13.00;99.90;;;;;;5076692;28;20261;-79
2022/08/14 05:36:08;;;;;;;18.47;3.50;;;-11.50;99.90;;;;;;5077702;28;20176;-86
2022/08/14 05:38:36;;;;;;;6.20;2.70;;;-12.30;99.90;;;;;;5087485;28;20583;-71
2022/08/14 05:41:16;;;;;;;3.17;2.77;;;-11.20;99.90;;;;;;5088817;28;20463;-78
2022/08/14 05:43:44;;;;;;;3.87;3.10;;;-10.20;99.90;;;;;;5089211;28;20217;-77
2022/08/14 05:46:12;;;;;;;3.90;3.63;;;-11.00;99.90;;;;;;5079668;28;20202;-74
2022/08/14 05:48:38;;;;;;;3.10;2.60;;;-11.00;99.90;;;;;;5079631;28;20217;-69
2022/08/14 05:51:04;;;;;;;13.93;4.17;;;-11.20;99.90;;;;;;5082626;28;20237;-70
2022/08/14 05:53:30;;;;;;;3.47;3.17;;;-10.60;99.90;;;;;;5089393;28;20170;-72
2022/08/14 05:55:57;;;;;;;8.27;3.23;;;-11.90;99.90;;;;;;5078693;28;20699;-73
2022/08/14 05:58:24;;;;;;;3.43;2.63;;;-11.20;99.90;;;;;;5082568;28;20530;-75
2022/08/14 06:00:50;;;;;;;5.13;3.03;;;-13.20;99.90;;;;;;5079266;28;20493;-76
2022/08/14 06:03:19;;;;;;;4.07;2.83;;;-13.60;99.90;;;;;;5082412;28;20197;-74
2022/08/14 06:05:47;;;;;;;3.23;2.27;;;-13.90;99.90;;;;;;5083557;28;20633;-73
2022/08/14 06:08:23;;;;;;;2.67;2.57;;;-16.90;99.90;;;;;;5080166;28;20171;-76
2022/08/14 06:10:54;;;;;;;6.40;3.53;;;-19.30;99.90;;;;;;5084049;28;20210;-75
2022/08/14 06:13:21;;;;;;;8.40;3.30;;;-18.10;99.90;;;;;;5079779;28;20183;-82
2022/08/14 06:15:49;;;;;;;3.33;3.13;;;-17.20;99.90;;;;;;5083533;28;20226;-75
2022/08/14 06:18:16;;;;;;;12.03;3.27;;;-17.60;99.90;;;;;;5078983;28;20463;-78
2022/08/14 06:20:42;;;;;;;4.43;3.97;;;-16.50;99.90;;;;;;5083434;28;20232;-73
2022/08/14 06:23:08;;;;;;;4.27;3.07;;;-18.20;99.90;;;;;;5088953;28;20186;-75
2022/08/14 06:25:33;;;;;;;5.63;3.10;;;-16.70;99.90;;;;;;5087166;28;20179;-76
2022/08/14 06:27:59;;;;;;;2.83;2.63;;;-14.90;99.90;;;;;;5092636;28;20618;-75
2022/08/14 06:30:30;;;;;;;4.10;2.50;;;-17.50;99.90;;;;;;5082146;28;20194;-78
2022/08/14 06:32:56;;;;;;;3.43;2.80;;;-17.50;99.90;;;;;;5081142;28;20175;-72
2022/08/14 06:35:22;;;;;;;3.40;2.73;;;-16.40;99.90;;;;;;5086080;28;20205;-74
2022/08/14 06:37:51;;;;;;;3.60;3.37;;;-17.30;99.90;;;;;;5089604;28;20182;-70
2022/08/14 06:40:34;;;;;;;4.10;3.43;;;-17.20;99.90;;;;;;5092943;28;20517;-72
2022/08/14 06:43:10;;;;;;;2.43;2.23;;;-19.50;99.90;;;;;;5078923;28;20277;-73
2022/08/14 06:45:39;;;;;;;2.80;2.30;;;-16.20;99.90;;;;;;5077948;28;20201;-71
2022/08/14 06:48:17;;;;;;;5.90;2.80;;;-13.50;99.90;;;;;;5077530;28;20183;-76
2022/08/14 06:50:44;;;;;;;2.57;2.47;;;-17.00;99.30;;;;;;5078586;28;20294;-77
2022/08/14 06:53:10;;;;;;;3.30;3.07;;;-17.10;99.60;;;;;;5087351;28;20186;-76
2022/08/14 06:55:36;;;;;;;5.53;3.37;;;-13.60;98.10;;;;;;5079799;28;20207;-78
2022/08/14 06:58:02;;;;;;;3.33;3.13;;;-19.10;93.90;;;;;;5078158;28;20175;-79
2022/08/14 07:00:28;;;;;;;3.13;2.93;;;-12.40;95.00;;;;;;5078476;28;20275;-77
2022/08/14 07:05:46;;;;;;;4.20;3.67;;;-14.40;93.50;;;;;;5082765;28;20210;-71
2022/08/14 07:08:16;;;;;;;3.80;3.43;;;-17.20;91.20;;;;;;5078049;28;20229;-77
2022/08/14 07:10:44;;;;;;;3.43;3.13;;;-22.20;88.00;;;;;;5083595;28;20198;-75
2022/08/14 07:13:12;;;;;;;3.37;3.17;;;-20.80;87.40;;;;;;5077157;28;20628;-75
2022/08/14 07:15:39;;;;;;;3.70;3.40;;;-27.10;81.90;;;;;;5078332;28;20741;-72
2022/08/14 07:18:07;;;;;;;2.83;2.63;;;-25.20;82.30;;;;;;5078683;28;20275;-75
2022/08/14 07:20:33;;;;;;;4.07;3.20;;;-29.40;80.20;;;;;;5078389;28;20229;-74
2022/08/14 07:23:01;;;;;;;4.03;3.80;;;-25.90;80.20;;;;;;5078268;28;20184;-73
2022/08/14 07:25:27;;;;;;;3.07;2.93;;;-31.40;75.10;;;;;;5080154;28;20183;-76
2022/08/14 07:27:54;;;;;;;3.57;3.23;;;-24.70;79.70;;;;;;5089981;28;20183;-75
2022/08/14 07:30:20;;;;;;;3.07;2.93;;;-32.60;73.40;;;;;;5093727;28;20229;-75
2022/08/14 07:32:46;;;;;;;6.57;2.90;;;-40.00;67.30;;;;;;5091959;28;20243;-70
2022/08/14 07:35:11;;;;;;;7.13;3.50;;;-34.60;68.80;;;;;;5093596;28;20210;-73
2022/08/14 07:37:37;;;;;;;3.27;2.90;;;-40.00;66.30;;;;;;5090422;28;20270;-75
2022/08/14 07:40:04;;;;;;;3.37;2.67;;;-40.00;65.70;;;;;;5093557;28;20187;-75
2022/08/14 07:42:31;;;;;;;2.57;2.47;;;-40.00;67.00;;;;;;5089608;28;20179;-69
2022/08/14 07:45:00;;;;;;;3.00;2.73;;;-40.00;66.50;;;;;;5092307;28;20174;-74
2022/08/14 07:47:26;;;;;;;3.50;3.20;;;-40.00;65.90;;;;;;5090597;28;20594;-70
2022/08/14 07:50:15;;;;;;;2.70;2.40;;;-40.00;65.40;;;;;;5092785;28;20221;-71
2022/08/14 07:52:43;;;;;;;2.50;2.40;;;-40.00;65.10;;;;;;5092467;28;20293;-73
2022/08/14 07:55:11;;;;;;;2.70;2.60;;;-40.00;63.80;;;;;;5090223;28;20201;-71
2022/08/14 07:57:39;;;;;;;3.33;3.13;;;-40.00;62.80;;;;;;5090580;28;20247;-74
2022/08/14 08:00:12;;;;;;;2.43;2.33;;;-40.00;63.30;;;;;;5091769;28;20186;-70
2022/08/14 08:02:43;;;;;;;2.33;2.23;;;-40.00;62.80;;;;;;5091449;28;20179;-69
2022/08/14 08:05:10;;;;;;;2.53;2.30;;;-40.00;61.20;;;;;;5087241;28;20175;-78
2022/08/14 08:07:37;;;;;;;3.17;3.03;;;-40.00;61.20;;;;;;5089883;28;20642;-76
2022/08/14 08:13:08;;;;;;;2.40;2.30;;;-40.00;61.50;;;;;;5088651;28;20487;-77
2022/08/14 08:15:39;;;;;;;5.03;2.53;;;-40.00;60.70;;;;;;5075962;28;20516;-73
2022/08/14 08:18:07;;;;;;;2.87;2.70;;;-40.00;59.40;;;;;;5076024;28;20692;-76
2022/08/14 08:20:36;;;;;;;2.80;2.63;;;-40.00;58.30;;;;;;5086908;28;20232;-72
2022/08/14 08:23:03;;;;;;;2.63;2.53;;;-40.00;59.10;;;;;;5079359;28;20172;-71
2022/08/14 08:25:32;;;;;;;3.20;2.23;;;-40.00;58.20;;;;;;5079108;28;20202;-75
2022/08/14 08:28:09;;;;;;;3.73;2.67;;;-40.00;58.30;;;;;;5082159;28;20183;-71
2022/08/14 08:30:38;;;;;;;2.87;2.63;;;-40.00;58.20;;;;;;5075869;28;20221;-74
2022/08/14 08:33:05;;;;;;;6.80;2.90;;;-40.00;56.70;;;;;;5079778;28;20243;-74
2022/08/14 08:35:37;;;;;;;2.77;2.57;;;-40.00;57.40;;;;;;5084082;28;20206;-74
2022/08/14 08:38:11;;;;;;;2.43;2.33;;;-40.00;56.90;;;;;;5086843;28;20288;-76
2022/08/14 08:40:41;;;;;;;2.87;2.77;;;-40.00;57.00;;;;;;5090364;28;20233;-78
2022/08/14 08:43:34;;;;;;;2.90;2.70;;;-40.00;56.50;;;;;;5087383;28;20183;-78
2022/08/14 08:46:10;;;;;;;2.83;2.63;;;-40.00;56.80;;;;;;5084706;28;20187;-74
2022/08/14 08:48:46;;;;;;;3.40;2.53;;;-40.00;56.40;;;;;;5081515;28;20575;-75
2022/08/14 08:51:35;;;;;;;2.67;2.47;;;-40.00;56.70;;;;;;5089593;28;20251;-77
2022/08/14 08:54:10;;;;;;;3.53;3.07;;;-40.00;56.40;;;;;;5086071;28;20242;-78
2022/08/14 08:56:49;;;;;;;2.97;2.63;;;-40.00;56.80;;;;;;5090792;28;20174;-72
2022/08/14 08:59:19;;;;;;;2.90;2.80;;;-40.00;55.40;;;;;;5089946;28;20201;-75
2022/08/14 09:01:55;;;;;;;2.73;2.53;;;-40.00;54.90;;;;;;5092128;28;20175;-74
2022/08/14 09:04:20;;;;;;;3.77;2.70;;;-40.00;54.50;;;;;;5087338;28;20178;-73
2022/08/14 09:06:47;;;;;;;4.57;2.73;;;-40.00;53.30;;;;;;5090797;28;21219;-74
2022/08/14 09:09:27;;;;;;;2.93;2.73;;;-40.00;52.10;;;;;;5087744;28;20191;-75
2022/08/14 09:11:54;;;;;;;3.37;3.07;;;-40.00;52.90;;;;;;5089852;28;20175;-72
2022/08/14 09:14:22;;;;;;;2.50;2.30;;;-40.00;53.30;;;;;;5088147;28;20205;-73
2022/08/14 09:16:49;;;;;;;2.50;2.30;;;-40.00;52.40;;;;;;5092270;28;20597;-71
2022/08/14 09:19:15;;;;;;;3.07;2.87;;;-40.00;52.90;;;;;;5094582;28;20178;-72
2022/08/14 09:21:41;;;;;;;3.00;2.80;;;-40.00;53.70;;;;;;5090978;28;20182;-70
2022/08/14 09:24:08;;;;;;;3.13;2.70;;;-40.00;53.40;;;;;;5095005;28;20769;-72
2022/08/14 09:26:35;;;;;;;5.13;2.47;;;-40.00;55.20;;;;;;5092888;28;20231;-71
2022/08/14 09:29:04;;;;;;;3.60;2.60;;;-40.00;55.20;;;;;;5093179;28;20181;-70
2022/08/14 09:31:33;;;;;;;3.03;2.87;;;-40.00;55.60;;;;;;5093763;28;20182;-71
2022/08/14 09:34:19;;;;;;;3.43;2.87;;;-40.00;55.10;;;;;;5093562;28;20226;-70
2022/08/14 09:36:48;;;;;;;2.93;2.80;;;27.40;94.20;;;;;;5088347;28;20253;-71
2022/08/14 09:39:35;;;;;;;3.17;2.97;;;27.50;94.30;;;;;;5094681;28;20301;-71
2022/08/14 09:42:10;;;;;;;2.80;2.23;;;27.60;94.60;;;;;;5091963;28;20170;-70
2022/08/14 09:44:50;;;;;;;3.20;3.10;;;27.60;94.00;;;;;;5095649;28;20300;-73
2022/08/14 09:47:17;;;;;;;2.97;2.63;;;27.60;93.90;;;;;;5092526;28;20190;-72
2022/08/14 09:49:43;;;;;;;2.93;2.73;;;27.60;94.00;;;;;;5093183;28;20178;-71
2022/08/14 09:52:10;;;;;;;3.87;2.70;;;27.60;93.90;;;;;;5094740;28;20174;-71
2022/08/14 09:54:43;;;;;;;3.80;2.63;;;27.70;94.30;;;;;;5093900;28;20209;-72
2022/08/14 09:57:12;;;;;;;2.53;2.43;;;27.70;94.80;;;;;;5092221;28;20612;-70
2022/08/14 09:59:45;;;;;;;6.20;2.67;;;27.60;93.70;;;;;;5091992;28;20589;-69
2022/08/14 10:02:20;;;;;;;2.63;2.43;;;27.40;93.20;;;;;;5093078;28;20171;-70
2022/08/14 10:04:57;;;;;;;2.77;2.67;;;25.70;92.70;;;;;;5087632;28;20190;-71
2022/08/14 10:07:34;;;;;;;4.43;2.50;;;-40.00;55.90;;;;;;5078700;28;20174;-69
2022/08/14 10:10:01;;;;;;;3.10;3.00;;;-40.00;55.70;;;;;;5080584;28;20213;-69
2022/08/14 10:12:42;;;;;;;3.07;2.87;;;-40.00;54.60;;;;;;5087810;28;20175;-70
2022/08/14 10:15:20;;;;;;;3.27;2.60;;;-40.00;51.80;;;;;;5080503;28;20256;-69
2022/08/14 10:17:52;;;;;;;3.03;2.73;;;-40.00;52.30;;;;;;5089308;28;20466;-68
2022/08/14 10:20:21;;;;;;;2.40;2.30;;;-40.00;50.30;;;;;;5087707;28;20640;-70
2022/08/14 10:22:48;;;;;;;4.43;2.23;;;-40.00;49.50;;;;;;5090998;28;20167;-69
2022/08/14 10:25:16;;;;;;;2.63;2.53;;;-40.00;48.50;;;;;;5088649;28;20252;-69
2022/08/14 10:27:48;;;;;;;5.60;2.80;;;-40.00;46.60;;;;;;5091440;28;20186;-70
2022/08/14 10:30:16;;;;;;;2.40;2.30;;;-40.00;46.30;;;;;;5092848;28;20187;-70
2022/08/14 10:32:47;;;;;;;3.17;2.97;;;-32.70;49.20;;;;;;5091510;28;20182;-70
2022/08/14 10:35:14;;;;;;;2.80;2.60;;;-40.00;45.20;;;;;;5091297;28;20207;-70
2022/08/14 10:37:48;;;;;;;2.27;2.07;;;-40.00;45.50;;;;;;5091701;28;20241;-70
2022/08/14 10:40:25;;;;;;;2.60;2.40;;;20.10;77.60;;;;;;5091265;28;20170;-70
2022/08/14 10:42:51;;;;;;;2.10;2.00;;;29.70;81.70;;;;;;5091309;28;20175;-72
2022/08/14 10:45:20;;;;;;;2.43;2.33;;;29.80;80.40;;;;;;5090182;28;20252;-71
2022/08/14 10:47:47;;;;;;;4.50;1.77;;;30.10;77.00;;;;;;5090160;28;20307;-76
2022/08/14 10:50:15;;;;;;;7.35;2.58;;;30.20;77.10;;;;;;5089086;28;20194;-76
2022/08/14 10:52:41;;;;;;;6.28;1.70;;;30.20;78.50;;;;;;5092151;28;20180;-74
2022/08/14 10:55:12;;;;;;;1.73;1.63;;;30.30;78.30;;;;;;5092996;28;20202;-75
2022/08/14 10:57:51;;;;;;;2.28;2.17;;;30.30;74.20;;;;;;5092122;28;20721;-76
2022/08/14 11:00:20;;;;;;;2.45;1.70;;;30.30;73.10;;;;;;5093516;28;20197;-75
2022/08/14 11:03:06;;;;;;;2.03;1.92;;;29.90;70.00;;;;;;5090573;28;20209;-77
2022/08/14 11:05:46;;;;;;;2.28;2.17;;;31.00;69.00;;;;;;5089672;28;20179;-74
2022/08/14 11:08:14;;;;;;;2.17;2.08;;;31.10;70.00;;;;;;5090025;28;20179;-73
2022/08/14 11:11:09;;;;;;;1.70;1.60;;;31.10;69.10;;;;;;5090789;28;20255;-71
2022/08/14 11:13:40;;;;;;;2.20;2.00;;;31.20;69.30;;;;;;5086435;28;20266;-74
2022/08/14 11:16:06;;;;;;;6.00;3.15;;;30.80;66.90;;;;;;5090800;28;20209;-73
2022/08/14 11:18:32;;;;;;;1.90;1.80;;;31.30;64.10;;;;;;5090249;28;20170;-75
2022/08/14 11:20:59;;;;;;;2.70;1.52;;;29.10;63.00;;;;;;5086981;28;20179;-77
2022/08/14 11:23:28;;;;;;;2.17;2.00;;;31.90;62.90;;;;;;5093595;28;20171;-75
2022/08/14 11:25:57;;;;;;;1.80;1.70;;;32.00;58.70;;;;;;5091257;28;20183;-76
2022/08/14 11:28:25;;;;;;;1.83;1.73;;;32.00;58.10;;;;;;5084291;28;20190;-73
2022/08/14 11:30:52;;;;;;;2.08;1.88;;;32.00;58.90;;;;;;5078150;28;20195;-78
2022/08/14 11:33:29;;;;;;;1.70;1.60;;;32.10;58.50;;;;;;5080687;28;20171;-75
2022/08/14 11:35:59;;;;;;;2.45;1.90;;;31.90;56.00;;;;;;5091784;28;20635;-72
2022/08/14 11:38:27;;;;;;;1.98;1.83;;;31.60;54.60;;;;;;5087242;28;20177;-73
2022/08/14 11:40:56;;;;;;;2.10;1.98;;;32.40;56.10;;;;;;5092386;28;20233;-71
2022/08/14 11:43:24;;;;;;;1.80;1.70;;;32.50;56.00;;;;;;5085592;28;20252;-73
2022/08/14 11:45:50;;;;;;;9.13;3.50;;;32.30;55.70;;;;;;5090849;28;20589;-72
2022/08/14 11:48:21;;;;;;;2.25;1.73;;;32.50;56.50;;;;;;5086157;28;20193;-72
2022/08/14 11:50:49;;;;;;;2.92;2.15;;;33.30;57.10;;;;;;5092831;28;20289;-72
2022/08/14 11:53:29;;;;;;;2.10;1.90;;;33.60;53.50;;;;;;5088039;28;20612;-72
2022/08/14 11:56:05;;;;;;;6.03;2.25;;;-25.50;24.60;;;;;;5089555;28;20220;-73
2022/08/14 11:58:34;;;;;;;2.35;1.63;;;-13.10;29.20;;;;;;5087323;28;20190;-73
2022/08/14 12:01:05;;;;;;;1.40;1.40;;;-13.90;27.20;;;;;;5090899;28;20190;-72
2022/08/14 12:03:45;;;;;;;1.50;1.50;;;-8.60;30.10;;;;;;5089038;28;20174;-72
2022/08/14 12:06:15;;;;;;;1.50;1.50;;;-4.00;29.10;;;;;;5088974;28;20178;-72
2022/08/14 12:08:41;;;;;;;1.80;1.70;;;-3.70;33.10;;;;;;5089212;28;20803;-71
2022/08/14 12:11:12;;;;;;;2.72;2.50;;;3.70;32.60;;;;;;5085931;28;20191;-72
2022/08/14 12:13:39;;;;;;;4.63;3.00;;;6.30;33.20;;;;;;5085353;28;20191;-71
2022/08/14 12:16:08;;;;;;;3.47;2.35;;;6.30;34.00;;;;;;5086720;28;20613;-73
2022/08/14 12:18:43;;;;;;;1.58;1.50;;;7.00;31.40;;;;;;5089482;28;20183;-73
2022/08/14 12:21:21;;;;;;;3.80;2.72;;;8.40;29.10;;;;;;5088368;28;20170;-72
2022/08/14 12:24:04;;;;;;;2.63;2.50;;;7.50;29.80;;;;;;5084744;28;20203;-71
2022/08/14 12:26:30;;;;;;;1.88;1.73;;;6.30;30.00;;;;;;5085182;28;20638;-72
2022/08/14 12:29:07;;;;;;;1.92;1.70;;;6.50;30.10;;;;;;5086601;28;20175;-73
2022/08/14 12:31:34;;;;;;;3.60;1.60;;;8.90;31.40;;;;;;5089747;28;20205;-72
2022/08/14 12:34:03;;;;;;;5.55;1.88;;;7.40;30.50;;;;;;5085877;28;20244;-72
2022/08/14 12:36:29;;;;;;;2.13;1.50;;;8.50;29.40;;;;;;5085970;28;20586;-72
2022/08/14 12:38:57;;;;;;;1.77;1.42;;;11.70;31.80;;;;;;5089939;28;20244;-70
2022/08/14 12:41:25;;;;;;;1.98;1.88;;;14.10;29.80;;;;;;5089462;28;20251;-75
2022/08/14 12:44:00;;;;;;;2.17;1.98;;;14.70;31.00;;;;;;5084619;28;20183;-71
2022/08/14 12:46:36;;;;;;;1.73;1.63;;;15.30;30.40;;;;;;5089942;28;20253;-70
2022/08/14 12:49:15;;;;;;;2.30;1.60;;;15.90;31.70;;;;;;5087273;28;20174;-74
2022/08/14 12:51:42;;;;;;;2.47;1.80;;;16.10;30.90;;;;;;5083288;28;20204;-72
2022/08/14 12:54:13;;;;;;;2.92;1.98;;;15.80;32.10;;;;;;5076125;28;20209;-71
2022/08/14 12:56:39;;;;;;;5.25;2.13;;;14.80;31.20;;;;;;5079663;28;20608;-75
2022/08/14 12:59:06;;;;;;;4.35;1.75;;;16.40;30.40;;;;;;5090308;28;20273;-69
2022/08/14 13:01:34;;;;;;;1.95;1.80;;;16.50;31.70;;;;;;5086576;28;20171;-72
2022/08/14 13:04:07;;;;;;;1.90;1.73;;;17.90;31.60;;;;;;5089177;28;20570;-71
2022/08/14 13:06:37;;;;;;;1.98;1.48;;;18.50;31.10;;;;;;5089820;28;20175;-76